Time;durP1;ratioP1;P1;durP2;ratioP2;P2;SDS_P1;SDS_P2;PMS_P1;PMS_P2;Temp;Humidity;BMP_temperature;BMP_pressure;BME280_temperature;BME280_humidity;BME280_pressure;Samples;Min_cycle;Max_cycle;Signal;HPM_P1;HPM_P2
2022/05/27 00:02:16;;;;;;;2.00;1.37;;;20.50;59.50;;;;;;5081035;28;20577;-47
2022/05/27 00:04:55;;;;;;;1.70;1.60;;;20.50;59.50;;;;;;5059356;27;20587;-49
2022/05/27 00:07:37;;;;;;;3.00;1.43;;;20.50;59.40;;;;;;5050378;28;20534;-50
2022/05/27 00:10:17;;;;;;;1.33;1.23;;;20.50;59.60;;;;;;5081557;27;20515;-48
2022/05/27 00:12:58;;;;;;;4.53;1.50;;;20.50;59.50;;;;;;5069415;28;20538;-49
2022/05/27 00:15:38;;;;;;;2.07;1.30;;;20.50;59.40;;;;;;5105198;27;21104;-47
2022/05/27 00:18:18;;;;;;;1.50;1.40;;;20.50;59.40;;;;;;5061430;27;20602;-50
2022/05/27 00:21:01;;;;;;;1.20;1.10;;;20.50;59.40;;;;;;5113967;27;21072;-48
2022/05/27 00:23:43;;;;;;;3.23;1.20;;;20.50;59.40;;;;;;5071880;27;20576;-47
2022/05/27 00:26:24;;;;;;;1.63;1.50;;;20.50;59.40;;;;;;5079679;28;20794;-47
2022/05/27 00:29:05;;;;;;;1.57;1.30;;;20.50;59.60;;;;;;5080752;27;21067;-49
2022/05/27 00:31:45;;;;;;;1.40;1.27;;;20.50;59.50;;;;;;5121463;27;20517;-47
2022/05/27 00:34:25;;;;;;;0.93;0.90;;;20.50;59.40;;;;;;5064280;28;20603;-47
2022/05/27 00:37:06;;;;;;;1.47;1.37;;;20.50;59.50;;;;;;5119582;27;20610;-48
2022/05/27 00:39:46;;;;;;;1.30;1.20;;;20.50;59.60;;;;;;5067155;27;21060;-49
2022/05/27 00:42:26;;;;;;;1.90;1.53;;;20.50;59.70;;;;;;5076834;28;20626;-49
2022/05/27 00:45:13;;;;;;;2.30;1.47;;;20.50;59.50;;;;;;5079433;27;20930;-47
2022/05/27 00:47:57;;;;;;;3.00;1.67;;;20.50;59.50;;;;;;5106886;27;20535;-50
2022/05/27 00:50:41;;;;;;;1.43;1.33;;;20.50;59.50;;;;;;5109522;27;20529;-49
2022/05/27 00:53:30;;;;;;;1.60;1.50;;;20.50;59.50;;;;;;5103187;27;20943;-48
2022/05/27 00:56:12;;;;;;;1.73;1.63;;;20.50;59.60;;;;;;5079689;28;20572;-46
2022/05/27 00:58:56;;;;;;;1.90;1.57;;;20.50;59.50;;;;;;5108854;27;20542;-49
2022/05/27 01:01:36;;;;;;;1.70;1.60;;;20.50;59.40;;;;;;5121477;27;20586;-46
2022/05/27 01:04:18;;;;;;;1.93;1.60;;;20.50;59.40;;;;;;5105527;27;20596;-50
2022/05/27 01:06:59;;;;;;;1.63;1.53;;;20.50;59.50;;;;;;5120316;27;20575;-48
2022/05/27 01:09:42;;;;;;;2.03;1.77;;;20.50;59.50;;;;;;5063155;28;20541;-47
2022/05/27 01:12:36;;;;;;;1.50;1.40;;;20.50;59.40;;;;;;5119165;27;20926;-49
2022/05/27 01:15:27;;;;;;;1.87;1.77;;;20.50;59.50;;;;;;5019214;28;20545;-50
2022/05/27 01:18:23;;;;;;;1.40;1.30;;;20.50;59.50;;;;;;5110292;27;20620;-49
2022/05/27 01:21:11;;;;;;;1.60;1.50;;;20.40;59.40;;;;;;5101663;27;20519;-48
2022/05/27 01:24:32;;;;;;;2.60;1.60;;;20.50;59.40;;;;;;5074740;27;20540;-49
2022/05/27 01:27:50;;;;;;;4.30;1.60;;;20.40;59.40;;;;;;5076010;27;20951;-49
2022/05/27 01:30:35;;;;;;;1.40;1.30;;;20.40;59.20;;;;;;5121973;27;20989;-49
2022/05/27 01:33:32;;;;;;;1.63;1.53;;;20.40;59.50;;;;;;5105224;27;20529;-47
2022/05/27 01:36:23;;;;;;;1.90;1.53;;;20.50;59.50;;;;;;5075078;28;20583;-49
2022/05/27 01:39:11;;;;;;;2.23;1.50;;;20.40;59.40;;;;;;5068307;28;20544;-47
2022/05/27 01:42:01;;;;;;;3.10;1.50;;;20.40;59.60;;;;;;5121308;27;20512;-48
2022/05/27 01:44:47;;;;;;;1.80;1.60;;;20.50;59.50;;;;;;5027903;27;20953;-47
2022/05/27 01:47:35;;;;;;;1.53;1.43;;;20.40;59.40;;;;;;5080873;28;21112;-46
2022/05/27 01:50:23;;;;;;;2.70;1.50;;;20.50;59.50;;;;;;5081812;28;20496;-47
2022/05/27 01:53:10;;;;;;;1.60;1.30;;;20.50;59.40;;;;;;5076984;28;20951;-49
2022/05/27 01:55:58;;;;;;;1.53;1.43;;;20.40;59.40;;;;;;5079346;28;20520;-48
2022/05/27 01:58:42;;;;;;;1.87;1.47;;;20.40;59.50;;;;;;5087471;27;20603;-47
2022/05/27 02:01:27;;;;;;;3.50;1.40;;;20.40;59.30;;;;;;5080418;27;20573;-48
2022/05/27 02:04:11;;;;;;;1.57;1.47;;;20.40;59.40;;;;;;5114034;27;20585;-47
2022/05/27 02:06:57;;;;;;;1.60;1.43;;;20.40;59.40;;;;;;5085861;28;20929;-48
2022/05/27 02:09:41;;;;;;;2.00;1.50;;;20.40;59.40;;;;;;5069593;27;20545;-46
2022/05/27 02:12:28;;;;;;;1.87;1.30;;;20.40;59.50;;;;;;5125118;27;21101;-49
2022/05/27 02:15:14;;;;;;;1.37;1.27;;;20.40;59.50;;;;;;5085131;27;20558;-48
2022/05/27 02:17:57;;;;;;;1.50;1.30;;;20.40;59.50;;;;;;5125333;27;21047;-49
2022/05/27 02:20:44;;;;;;;2.10;1.57;;;20.40;59.60;;;;;;5086473;28;20525;-49
2022/05/27 02:23:30;;;;;;;1.90;1.37;;;20.40;59.50;;;;;;5076482;28;20537;-47
2022/05/27 02:26:16;;;;;;;1.67;1.40;;;20.40;59.50;;;;;;5086331;28;20520;-47
2022/05/27 02:29:01;;;;;;;1.20;1.10;;;20.40;59.40;;;;;;5092156;27;21035;-48
2022/05/27 02:31:47;;;;;;;1.80;1.43;;;20.40;59.40;;;;;;5128146;27;20514;-47
2022/05/27 02:37:37;;;;;;;1.87;1.77;;;20.40;59.60;;;;;;5084844;28;20569;-50
2022/05/27 02:40:22;;;;;;;3.80;1.17;;;20.40;59.70;;;;;;5128592;27;20883;-48
2022/05/27 02:43:13;;;;;;;2.30;1.57;;;20.40;59.80;;;;;;5079892;28;20561;-47
2022/05/27 02:46:00;;;;;;;1.10;1.00;;;20.30;59.80;;;;;;5085597;28;20516;-48
2022/05/27 02:48:45;;;;;;;1.77;1.23;;;20.40;60.00;;;;;;5098700;27;20556;-49
2022/05/27 02:51:35;;;;;;;1.20;1.10;;;20.40;60.20;;;;;;5103231;27;20584;-47
2022/05/27 02:54:23;;;;;;;1.40;1.20;;;20.30;60.00;;;;;;5072346;28;20549;-47
2022/05/27 02:57:08;;;;;;;1.40;1.30;;;20.30;60.10;;;;;;5127765;27;20525;-49
2022/05/27 02:59:50;;;;;;;1.50;1.40;;;20.40;60.30;;;;;;5068343;27;20545;-49
2022/05/27 03:02:33;;;;;;;2.10;1.47;;;20.30;60.30;;;;;;5082811;27;20524;-50
2022/05/27 03:05:18;;;;;;;1.40;1.30;;;20.30;60.40;;;;;;5120050;27;20931;-48
2022/05/27 03:08:15;;;;;;;1.20;1.10;;;20.30;60.30;;;;;;5080847;27;20610;-48
2022/05/27 03:11:05;;;;;;;1.30;1.20;;;20.30;60.40;;;;;;5081401;28;20516;-47
2022/05/27 03:14:14;;;;;;;1.43;1.10;;;20.30;60.50;;;;;;5101699;27;20550;-49
2022/05/27 03:17:06;;;;;;;1.23;1.13;;;20.30;60.50;;;;;;5081278;27;20532;-49
2022/05/27 03:20:03;;;;;;;2.40;1.37;;;20.30;60.50;;;;;;5104738;27;20960;-49
2022/05/27 03:22:54;;;;;;;1.40;1.30;;;20.30;60.50;;;;;;5064823;27;21124;-47
2022/05/27 03:25:40;;;;;;;1.27;1.17;;;20.30;60.50;;;;;;5080416;28;20523;-46
2022/05/27 03:28:28;;;;;;;2.40;1.00;;;20.30;60.60;;;;;;5101289;27;20545;-48
2022/05/27 03:31:17;;;;;;;1.77;1.20;;;20.30;60.50;;;;;;5102066;27;21183;-47
2022/05/27 03:34:06;;;;;;;1.27;1.17;;;20.30;60.60;;;;;;5069878;28;20590;-47
2022/05/27 03:36:54;;;;;;;1.30;1.20;;;20.30;60.50;;;;;;5103800;27;20957;-50
2022/05/27 03:39:41;;;;;;;1.37;1.20;;;20.30;60.60;;;;;;5064344;28;20639;-48
2022/05/27 03:42:24;;;;;;;1.77;1.20;;;20.30;60.60;;;;;;5119853;27;21043;-49
2022/05/27 03:45:08;;;;;;;1.10;1.00;;;20.30;60.60;;;;;;5059425;27;21006;-47
2022/05/27 03:47:50;;;;;;;1.00;0.90;;;20.30;60.60;;;;;;5116779;27;20583;-48
2022/05/27 03:50:30;;;;;;;1.70;1.60;;;20.30;60.60;;;;;;5118525;27;21010;-46
2022/05/27 03:53:12;;;;;;;1.40;1.30;;;20.30;60.60;;;;;;5132532;27;20568;-49
2022/05/27 03:55:53;;;;;;;1.30;1.20;;;20.30;60.60;;;;;;5121279;27;20517;-47
2022/05/27 03:58:35;;;;;;;1.50;1.40;;;20.30;60.60;;;;;;5051720;27;21149;-49
2022/05/27 04:01:16;;;;;;;1.57;1.47;;;20.20;60.60;;;;;;5122106;27;20533;-49
2022/05/27 04:03:59;;;;;;;2.47;1.43;;;20.30;60.70;;;;;;5069367;27;20898;-51
2022/05/27 04:06:39;;;;;;;1.13;1.00;;;20.20;60.60;;;;;;5062361;28;21064;-48
2022/05/27 04:09:22;;;;;;;1.57;1.00;;;20.30;60.70;;;;;;5080184;27;20539;-49
2022/05/27 04:12:05;;;;;;;1.40;1.30;;;20.20;61.30;;;;;;5081368;28;21079;-49
2022/05/27 04:14:44;;;;;;;1.10;1.00;;;20.20;60.70;;;;;;5061940;27;20542;-47
2022/05/27 04:17:33;;;;;;;1.20;1.10;;;20.20;60.80;;;;;;5133296;27;20535;-49
2022/05/27 04:20:17;;;;;;;1.30;1.10;;;20.20;60.80;;;;;;5080293;27;20644;-47
2022/05/27 04:22:59;;;;;;;2.07;1.47;;;20.20;60.90;;;;;;5128769;27;20649;-49
2022/05/27 04:25:40;;;;;;;1.07;0.90;;;20.20;60.90;;;;;;5121126;27;20512;-47
2022/05/27 04:28:21;;;;;;;1.80;1.57;;;20.20;60.80;;;;;;5058332;28;20543;-49
2022/05/27 04:31:09;;;;;;;1.83;1.07;;;20.20;60.80;;;;;;5122377;27;20984;-49
2022/05/27 04:33:54;;;;;;;1.10;0.83;;;20.20;60.90;;;;;;5075047;27;20564;-47
2022/05/27 04:36:35;;;;;;;0.90;0.90;;;20.20;60.90;;;;;;5080291;28;20531;-49
2022/05/27 04:39:16;;;;;;;1.40;1.07;;;20.20;61.00;;;;;;5080982;27;20536;-49
2022/05/27 04:41:56;;;;;;;1.30;0.90;;;20.20;61.00;;;;;;5122532;27;20517;-50
2022/05/27 04:44:37;;;;;;;2.20;1.50;;;20.10;60.80;;;;;;5054832;27;20541;-47
2022/05/27 04:47:19;;;;;;;1.27;0.93;;;20.20;61.00;;;;;;5121785;27;20602;-49
2022/05/27 04:50:02;;;;;;;1.10;1.00;;;20.20;61.00;;;;;;5061538;28;21321;-47
2022/05/27 04:52:43;;;;;;;1.37;1.27;;;20.10;60.90;;;;;;5091472;27;20552;-49
2022/05/27 04:55:25;;;;;;;1.43;1.30;;;20.10;60.90;;;;;;5100069;27;20514;-47
2022/05/27 04:58:07;;;;;;;1.00;0.90;;;20.20;61.10;;;;;;5056100;28;20553;-48
2022/05/27 05:00:49;;;;;;;1.00;0.90;;;20.20;61.00;;;;;;5081460;28;20785;-48
2022/05/27 05:03:32;;;;;;;1.13;1.07;;;20.20;62.40;;;;;;5072405;27;20930;-49
2022/05/27 05:06:12;;;;;;;1.10;1.00;;;20.20;61.00;;;;;;5080777;27;20512;-48
2022/05/27 05:08:54;;;;;;;1.27;1.17;;;20.10;61.10;;;;;;5053522;28;20553;-48
2022/05/27 05:11:35;;;;;;;1.20;1.10;;;20.10;61.20;;;;;;5080832;27;20531;-49
2022/05/27 05:14:16;;;;;;;0.83;0.83;;;20.10;61.30;;;;;;5055780;27;20683;-48
2022/05/27 05:16:58;;;;;;;1.40;1.30;;;20.10;61.30;;;;;;5080991;27;20660;-48
2022/05/27 05:19:39;;;;;;;1.60;1.50;;;20.10;61.30;;;;;;5059876;27;20917;-49
2022/05/27 05:22:21;;;;;;;1.40;1.30;;;20.10;61.50;;;;;;5119512;27;20533;-49
2022/05/27 05:25:02;;;;;;;1.20;1.10;;;20.10;61.40;;;;;;5100912;27;20546;-50
2022/05/27 05:27:42;;;;;;;1.77;1.37;;;20.10;61.40;;;;;;5086577;27;20552;-49
2022/05/27 05:30:26;;;;;;;1.57;1.20;;;20.10;61.40;;;;;;5101542;27;20542;-47
2022/05/27 05:33:07;;;;;;;1.03;0.93;;;20.10;61.40;;;;;;5073335;27;20684;-47
2022/05/27 05:35:48;;;;;;;1.70;1.60;;;20.10;61.40;;;;;;5080375;28;20581;-48
2022/05/27 05:38:29;;;;;;;1.10;1.00;;;20.10;61.50;;;;;;5104810;27;20539;-48
2022/05/27 05:41:10;;;;;;;1.33;1.23;;;20.10;61.50;;;;;;5017611;28;20536;-48
2022/05/27 05:43:53;;;;;;;1.87;1.20;;;20.10;61.50;;;;;;5100233;27;20982;-46
2022/05/27 05:46:36;;;;;;;1.90;1.20;;;20.10;61.60;;;;;;5098901;27;20572;-47
2022/05/27 05:49:16;;;;;;;1.20;1.00;;;20.10;61.50;;;;;;5082258;27;20536;-48
2022/05/27 05:52:00;;;;;;;1.47;1.30;;;20.10;61.60;;;;;;5100970;27;20515;-47
2022/05/27 05:54:40;;;;;;;1.60;1.50;;;20.10;61.60;;;;;;5063624;27;20553;-49
2022/05/27 05:57:22;;;;;;;1.53;1.37;;;20.10;61.60;;;;;;5073691;28;20543;-48
2022/05/27 06:00:06;;;;;;;1.50;1.30;;;20.10;61.70;;;;;;5101309;27;20572;-48
2022/05/27 06:02:52;;;;;;;1.93;1.57;;;20.10;61.70;;;;;;5081128;28;20574;-48
2022/05/27 06:05:33;;;;;;;1.30;1.20;;;20.10;61.70;;;;;;5080136;28;20596;-50
2022/05/27 06:08:14;;;;;;;1.23;1.13;;;20.10;61.90;;;;;;5059027;28;20524;-50
2022/05/27 06:10:55;;;;;;;1.40;1.10;;;20.10;61.80;;;;;;5101924;27;20522;-48
2022/05/27 06:13:40;;;;;;;1.20;1.10;;;20.00;61.70;;;;;;5067601;27;20531;-49
2022/05/27 06:16:20;;;;;;;1.50;1.40;;;20.00;61.60;;;;;;5081064;27;20523;-48
2022/05/27 06:19:02;;;;;;;0.87;0.87;;;20.00;61.70;;;;;;5092982;27;20575;-49
2022/05/27 06:21:43;;;;;;;1.10;1.00;;;20.00;61.60;;;;;;5077722;27;20534;-48
2022/05/27 06:24:25;;;;;;;0.90;0.90;;;20.00;61.70;;;;;;5069368;27;20553;-49
2022/05/27 06:27:08;;;;;;;1.20;1.10;;;20.10;61.90;;;;;;5104999;27;20590;-49
2022/05/27 06:35:51;;;;;;;1.23;1.13;;;20.00;61.80;;;;;;5121553;27;20553;-51
2022/05/27 06:38:32;;;;;;;1.10;1.00;;;20.00;61.80;;;;;;5098662;27;21518;-49
2022/05/27 06:41:13;;;;;;;1.27;1.17;;;20.00;61.90;;;;;;5084767;28;20519;-47
2022/05/27 06:43:56;;;;;;;1.30;1.20;;;20.00;61.80;;;;;;5070946;28;20542;-47
2022/05/27 06:46:37;;;;;;;1.80;1.23;;;20.00;61.80;;;;;;5123605;27;20505;-47
2022/05/27 06:49:19;;;;;;;1.20;1.10;;;20.00;61.90;;;;;;5055075;27;20572;-49
2022/05/27 06:52:00;;;;;;;1.10;1.00;;;20.00;62.00;;;;;;5123670;27;20524;-48
2022/05/27 06:54:45;;;;;;;0.93;0.87;;;20.00;62.00;;;;;;5081843;27;20308;-50
2022/05/27 06:57:26;;;;;;;0.97;0.87;;;20.00;62.00;;;;;;5121598;27;20688;-50
2022/05/27 07:00:11;;;;;;;1.50;1.40;;;20.00;62.10;;;;;;5023929;28;20565;-48
2022/05/27 07:02:52;;;;;;;1.17;1.07;;;20.00;62.10;;;;;;5084384;28;20520;-48
2022/05/27 07:05:31;;;;;;;1.00;0.83;;;20.00;62.20;;;;;;5075953;27;20525;-45
2022/05/27 07:08:13;;;;;;;1.23;1.17;;;20.00;62.10;;;;;;5120738;27;20562;-49
2022/05/27 07:10:53;;;;;;;1.00;1.00;;;20.00;62.10;;;;;;5085026;28;20924;-50
2022/05/27 07:13:33;;;;;;;1.20;0.80;;;20.00;62.10;;;;;;5079329;27;20596;-49
2022/05/27 07:16:14;;;;;;;1.53;1.20;;;20.00;62.00;;;;;;5082435;28;20566;-48
2022/05/27 07:18:56;;;;;;;1.20;1.10;;;20.00;62.10;;;;;;5063160;27;21065;-46
2022/05/27 07:21:40;;;;;;;2.10;0.80;;;20.00;62.10;;;;;;5082992;28;20567;-47
2022/05/27 07:27:05;;;;;;;0.97;0.80;;;20.00;62.10;;;;;;5122732;27;21067;-48
2022/05/27 07:29:46;;;;;;;0.83;0.83;;;20.00;62.10;;;;;;5059955;27;20636;-49
2022/05/27 07:32:26;;;;;;;1.40;1.30;;;19.90;62.20;;;;;;5125705;27;1225835;-49
2022/05/27 07:35:09;;;;;;;2.50;1.10;;;19.90;62.20;;;;;;5096632;27;20668;-48
2022/05/27 07:37:50;;;;;;;1.07;0.70;;;19.90;62.20;;;;;;5077826;28;20535;-47
2022/05/27 07:40:32;;;;;;;0.90;0.90;;;19.90;62.30;;;;;;5121810;27;20602;-48
2022/05/27 07:43:13;;;;;;;1.20;1.10;;;19.90;62.30;;;;;;5066387;28;21058;-47
2022/05/27 07:45:56;;;;;;;1.20;1.00;;;19.90;62.20;;;;;;5119732;27;20580;-47
2022/05/27 07:48:39;;;;;;;0.90;0.80;;;19.90;62.20;;;;;;5060048;27;21071;-48
2022/05/27 07:51:27;;;;;;;1.00;1.00;;;19.90;62.40;;;;;;5081999;28;20965;-47
2022/05/27 07:54:11;;;;;;;1.20;0.83;;;19.90;62.30;;;;;;5108634;27;20548;-47
2022/05/27 07:56:53;;;;;;;1.27;1.17;;;19.90;62.20;;;;;;5081889;28;20868;-47
2022/05/27 07:59:34;;;;;;;0.83;0.83;;;19.90;62.40;;;;;;5085387;27;20546;-47
2022/05/27 08:02:15;;;;;;;1.23;1.13;;;19.90;62.30;;;;;;5121911;27;20517;-48
2022/05/27 08:04:57;;;;;;;1.53;1.00;;;19.90;62.50;;;;;;5135479;27;20619;-48
2022/05/27 08:07:40;;;;;;;1.20;1.10;;;19.90;62.60;;;;;;5120604;27;20839;-48
2022/05/27 08:10:25;;;;;;;0.80;0.80;;;19.90;62.50;;;;;;5080951;28;20578;-48
2022/05/27 08:13:07;;;;;;;1.60;1.27;;;19.90;62.30;;;;;;5109527;27;20526;-50
2022/05/27 08:15:49;;;;;;;1.53;0.90;;;19.90;62.40;;;;;;5111702;27;20537;-48
2022/05/27 08:18:31;;;;;;;1.20;1.10;;;19.90;62.50;;;;;;5120004;27;21147;-49
2022/05/27 08:21:12;;;;;;;1.20;1.10;;;19.90;62.50;;;;;;5081765;28;20514;-49
2022/05/27 08:23:54;;;;;;;1.70;1.23;;;19.90;62.60;;;;;;5055118;27;20565;-47
2022/05/27 08:26:35;;;;;;;2.37;1.30;;;19.90;62.70;;;;;;5123194;27;20516;-47
2022/05/27 08:29:17;;;;;;;2.00;1.00;;;19.90;62.80;;;;;;5056833;28;20622;-48
2022/05/27 08:31:57;;;;;;;1.50;1.40;;;19.90;62.70;;;;;;5101218;27;20521;-48
2022/05/27 08:40:53;;;;;;;1.50;1.10;;;19.80;62.60;;;;;;5122845;27;20938;-50
2022/05/27 08:43:46;;;;;;;1.50;1.40;;;19.80;62.60;;;;;;5082407;27;20572;-46
2022/05/27 08:46:35;;;;;;;2.43;1.00;;;19.80;63.40;;;;;;5120564;27;21125;-49
2022/05/27 08:49:23;;;;;;;1.70;1.60;;;19.90;62.80;;;;;;5087291;27;20550;-47
2022/05/27 08:52:13;;;;;;;1.93;1.30;;;19.90;62.90;;;;;;5122462;27;20945;-51
2022/05/27 08:54:59;;;;;;;1.43;1.10;;;19.90;62.90;;;;;;5066466;27;20577;-47
2022/05/27 09:00:40;;;;;;;1.63;1.20;;;19.80;62.60;;;;;;5122630;27;21106;-47
2022/05/27 09:03:25;;;;;;;1.60;1.50;;;19.80;62.70;;;;;;5116782;27;20632;-47
2022/05/27 09:06:07;;;;;;;1.50;1.40;;;19.80;62.90;;;;;;5101018;27;20512;-47
2022/05/27 09:08:49;;;;;;;2.70;1.60;;;19.90;62.90;;;;;;5055907;27;20567;-49
2022/05/27 09:12:06;;;;;;;1.47;1.20;;;19.80;63.60;;;;;;5102206;27;20898;-49
2022/05/27 09:15:02;;;;;;;2.10;1.77;;;19.90;63.40;;;;;;5060951;27;20603;-48
2022/05/27 09:17:57;;;;;;;1.90;1.63;;;19.90;63.50;;;;;;5110462;27;20564;-48
2022/05/27 09:21:02;;;;;;;1.60;1.50;;;19.80;63.60;;;;;;5122600;27;20545;-48
2022/05/27 09:24:12;;;;;;;2.10;1.90;;;19.80;63.60;;;;;;5095416;27;20536;-49
2022/05/27 09:27:05;;;;;;;2.17;1.87;;;19.80;63.70;;;;;;5081279;27;21108;-48
2022/05/27 09:29:59;;;;;;;2.13;1.90;;;19.80;63.60;;;;;;5108306;27;20302;-48
2022/05/27 09:32:49;;;;;;;2.73;1.60;;;19.90;63.70;;;;;;5080426;27;20590;-48
2022/05/27 09:35:43;;;;;;;1.77;1.40;;;19.80;63.50;;;;;;5142497;27;20513;-48
2022/05/27 09:38:29;;;;;;;2.40;1.67;;;19.90;63.50;;;;;;5115506;27;20568;-50
2022/05/27 09:41:23;;;;;;;1.73;1.50;;;19.80;63.60;;;;;;5101616;27;20520;-48
2022/05/27 09:44:17;;;;;;;4.07;2.58;;;19.90;63.70;;;;;;5092296;27;20488;-47
2022/05/27 09:47:02;;;;;;;2.63;2.43;;;19.90;63.70;;;;;;5122926;27;21101;-47
2022/05/27 09:49:54;;;;;;;2.70;2.50;;;19.90;63.70;;;;;;5064348;27;20674;-49
2022/05/27 09:52:40;;;;;;;2.17;2.07;;;19.90;63.70;;;;;;5089130;27;20560;-51
2022/05/27 09:55:30;;;;;;;2.37;1.87;;;19.90;63.70;;;;;;5101073;27;20518;-48
2022/05/27 09:58:15;;;;;;;3.93;2.10;;;19.90;63.30;;;;;;5105602;27;20875;-47
2022/05/27 10:01:00;;;;;;;2.40;2.20;;;19.90;63.60;;;;;;5143196;27;20259;-50
2022/05/27 10:03:44;;;;;;;2.20;2.00;;;19.80;63.20;;;;;;5072469;27;20611;-49
2022/05/27 10:06:38;;;;;;;1.97;1.77;;;19.90;63.10;;;;;;5096911;27;20578;-49
2022/05/27 10:09:33;;;;;;;2.07;1.80;;;19.80;63.10;;;;;;5085172;27;20537;-72
2022/05/27 10:12:28;;;;;;;2.73;2.40;;;19.80;62.80;;;;;;5101004;27;20850;-49
2022/05/27 10:15:29;;;;;;;2.70;2.30;;;19.90;62.70;;;;;;5172263;22;20524;-50
2022/05/27 10:18:17;;;;;;;2.03;1.93;;;19.80;62.60;;;;;;5088309;27;21042;-50
2022/05/27 10:21:03;;;;;;;6.40;3.23;;;19.80;62.80;;;;;;5103753;27;20576;-52
2022/05/27 10:23:47;;;;;;;3.80;3.50;;;19.90;62.70;;;;;;5093863;27;20578;-51
2022/05/27 10:26:30;;;;;;;3.33;3.03;;;19.90;62.40;;;;;;5082356;27;21107;-52
2022/05/27 10:29:14;;;;;;;4.00;3.13;;;19.90;62.20;;;;;;5104774;27;20564;-53
2022/05/27 10:31:58;;;;;;;4.07;3.77;;;19.90;62.10;;;;;;5108160;27;20672;-52
2022/05/27 10:34:42;;;;;;;4.00;3.70;;;19.90;62.00;;;;;;5084656;27;20541;-52
2022/05/27 10:37:35;;;;;;;4.70;4.30;;;19.90;62.10;;;;;;5108203;27;20553;-54
2022/05/27 10:40:28;;;;;;;4.97;4.27;;;20.00;62.10;;;;;;5081962;28;20527;-53
2022/05/27 10:43:26;;;;;;;6.37;5.77;;;20.00;62.10;;;;;;5109848;27;20588;-52
2022/05/27 10:46:15;;;;;;;6.00;5.40;;;20.00;62.10;;;;;;5079814;27;21115;-51
2022/05/27 10:49:14;;;;;;;4.17;3.87;;;20.00;61.60;;;;;;5067564;27;20584;-52
2022/05/27 10:52:08;;;;;;;4.20;3.80;;;20.00;59.70;;;;;;5068008;27;20651;-51
2022/05/27 10:55:03;;;;;;;4.67;4.13;;;20.00;60.40;;;;;;5102695;27;20597;-51
2022/05/27 11:04:53;;;;;;;4.20;3.80;;;20.00;59.30;;;;;;5068787;27;21115;-50
2022/05/27 11:07:45;;;;;;;7.87;4.77;;;20.00;60.00;;;;;;5111776;27;21133;-52
2022/05/27 11:10:37;;;;;;;3.63;3.23;;;19.90;59.70;;;;;;5073196;28;20543;-51
2022/05/27 11:16:48;;;;;;;3.60;3.20;;;19.90;59.60;;;;;;5119061;27;20609;-52
2022/05/27 11:20:04;;;;;;;4.80;3.77;;;19.90;59.70;;;;;;5051700;27;20631;-50
2022/05/27 11:22:53;;;;;;;5.00;3.27;;;19.80;60.00;;;;;;5077902;27;20568;-49
2022/05/27 11:25:52;;;;;;;4.00;3.60;;;19.80;60.00;;;;;;5077972;27;20554;-51
2022/05/27 11:29:02;;;;;;;3.60;3.30;;;19.80;60.10;;;;;;5109320;27;20823;-49
2022/05/27 11:31:55;;;;;;;4.10;3.70;;;19.80;60.30;;;;;;5081384;28;20876;-49
2022/05/27 11:34:44;;;;;;;5.03;3.10;;;19.80;60.10;;;;;;5074156;27;21069;-51
2022/05/27 11:37:53;;;;;;;3.90;3.40;;;19.80;60.30;;;;;;5079714;27;20537;-50
2022/05/27 11:40:44;;;;;;;3.33;3.13;;;19.80;60.10;;;;;;5081225;27;20617;-52
2022/05/27 11:43:38;;;;;;;4.40;3.03;;;19.80;60.30;;;;;;5072489;28;20544;-51
2022/05/27 11:46:55;;;;;;;3.30;3.00;;;19.80;60.50;;;;;;5079921;27;21099;-48
2022/05/27 11:49:47;;;;;;;3.00;2.80;;;19.80;60.30;;;;;;5054364;27;21032;-50
2022/05/27 11:56:02;;;;;;;3.23;3.03;;;19.80;60.50;;;;;;5143568;27;1218702;-50
2022/05/27 11:58:59;;;;;;;3.63;3.33;;;19.80;59.90;;;;;;5038731;27;20592;-49
2022/05/27 12:01:59;;;;;;;3.53;3.23;;;19.80;59.70;;;;;;5069635;27;20611;-49
2022/05/27 12:04:49;;;;;;;5.47;4.00;;;19.80;59.70;;;;;;5070531;27;20549;-48
2022/05/27 12:07:42;;;;;;;2.83;2.63;;;19.80;59.80;;;;;;5069789;27;20556;-49
2022/05/27 12:10:35;;;;;;;3.23;2.70;;;19.80;60.10;;;;;;5061931;27;20744;-49
2022/05/27 12:13:32;;;;;;;3.43;3.10;;;19.80;59.20;;;;;;5107890;27;20638;-51
2022/05/27 12:16:19;;;;;;;3.57;3.27;;;19.80;59.70;;;;;;5122495;27;21203;-49
2022/05/27 12:19:10;;;;;;;4.73;3.47;;;19.80;59.90;;;;;;5069868;27;20610;-50
2022/05/27 12:22:04;;;;;;;5.63;3.33;;;19.80;59.70;;;;;;5143204;27;20764;-49
2022/05/27 12:24:59;;;;;;;4.20;3.40;;;19.80;59.50;;;;;;5031101;28;20820;-51
2022/05/27 12:28:03;;;;;;;3.80;3.40;;;19.80;59.70;;;;;;5070710;27;20633;-48
2022/05/27 12:30:49;;;;;;;4.80;3.23;;;19.80;59.70;;;;;;5083177;27;20538;-50
2022/05/27 12:33:37;;;;;;;3.10;2.77;;;19.80;59.70;;;;;;5092389;27;21085;-49
2022/05/27 12:36:31;;;;;;;3.00;2.80;;;19.80;59.70;;;;;;5074628;27;20936;-50
2022/05/27 12:39:27;;;;;;;3.40;3.10;;;19.80;59.80;;;;;;5065159;27;2198790;-52
2022/05/27 12:42:25;;;;;;;3.60;3.20;;;19.80;59.80;;;;;;5082848;27;20592;-52
2022/05/27 12:45:39;;;;;;;3.67;2.73;;;19.80;59.80;;;;;;5061553;27;21083;-48
2022/05/27 12:48:42;;;;;;;2.90;2.60;;;19.80;59.90;;;;;;5063002;27;20570;-49
2022/05/27 12:51:40;;;;;;;4.10;2.60;;;19.80;59.80;;;;;;5122271;27;21078;-48
2022/05/27 12:55:06;;;;;;;2.93;2.73;;;19.80;59.60;;;;;;5094366;27;20641;-48
2022/05/27 13:01:05;;;;;;;3.53;3.20;;;19.80;59.50;;;;;;5082725;27;20516;-50
2022/05/27 13:03:54;;;;;;;2.77;2.47;;;19.80;59.50;;;;;;5104147;27;20984;-48
2022/05/27 13:07:06;;;;;;;3.87;2.60;;;19.80;59.30;;;;;;5099305;27;20627;-48
2022/05/27 13:09:51;;;;;;;3.97;3.17;;;19.80;59.10;;;;;;5070986;27;20609;-49
2022/05/27 13:13:10;;;;;;;2.90;2.70;;;19.80;59.10;;;;;;4728337;27;12075414;-50
2022/05/27 13:16:31;;;;;;;2.50;2.10;;;19.80;59.50;;;;;;5125652;27;20308;-49
2022/05/27 13:19:28;;;;;;;4.13;2.50;;;19.80;59.30;;;;;;5069560;27;20574;-48
2022/05/27 13:22:34;;;;;;;3.20;2.90;;;19.80;58.90;;;;;;5143340;27;20644;-52
2022/05/27 13:25:32;;;;;;;5.97;2.90;;;19.90;59.10;;;;;;5082226;28;20589;-49
2022/05/27 13:28:28;;;;;;;4.67;2.77;;;19.80;58.90;;;;;;5065611;27;20565;-49
2022/05/27 13:31:24;;;;;;;2.77;2.57;;;19.80;58.90;;;;;;5082812;27;20591;-49
2022/05/27 13:34:10;;;;;;;2.50;2.30;;;19.90;58.90;;;;;;5085458;27;1909362;-48
2022/05/27 13:37:30;;;;;;;3.00;2.73;;;19.90;59.00;;;;;;5074437;27;20606;-51
2022/05/27 13:40:29;;;;;;;7.80;2.83;;;19.90;59.00;;;;;;5077169;28;21093;-52
2022/05/27 13:43:17;;;;;;;2.50;2.30;;;19.90;57.50;;;;;;5130370;27;20598;-54
2022/05/27 13:46:10;;;;;;;3.13;2.20;;;20.00;56.60;;;;;;5141157;27;20573;-49
2022/05/27 13:48:57;;;;;;;3.53;2.50;;;20.00;55.90;;;;;;5082191;27;20578;-49
2022/05/27 13:51:43;;;;;;;4.73;2.80;;;20.10;55.40;;;;;;5080114;27;20520;-50
2022/05/27 13:54:34;;;;;;;4.50;2.33;;;20.10;55.40;;;;;;5054460;27;20544;-51
2022/05/27 13:57:30;;;;;;;4.13;2.70;;;20.10;54.50;;;;;;5120886;27;20529;-51
2022/05/27 14:00:17;;;;;;;4.57;2.63;;;20.20;54.10;;;;;;5100753;27;21069;-51
2022/05/27 14:02:59;;;;;;;6.03;2.77;;;20.20;54.30;;;;;;5120306;27;20512;-52
2022/05/27 14:05:43;;;;;;;6.90;3.03;;;20.20;53.50;;;;;;5101886;27;20587;-52
2022/05/27 14:08:35;;;;;;;3.90;2.40;;;20.20;53.60;;;;;;5105057;27;20928;-50
2022/05/27 14:11:21;;;;;;;4.83;2.37;;;20.20;52.70;;;;;;5070297;27;20662;-49
2022/05/27 14:14:02;;;;;;;4.77;2.50;;;20.20;52.50;;;;;;5088358;27;20554;-49
2022/05/27 14:16:46;;;;;;;3.70;2.37;;;20.30;52.60;;;;;;5082078;28;20530;-52
2022/05/27 14:19:31;;;;;;;5.13;2.40;;;20.30;52.20;;;;;;5080162;27;20574;-49
2022/05/27 14:25:28;;;;;;;10.53;3.20;;;20.30;52.10;;;;;;5120448;27;20578;-51
2022/05/27 14:28:21;;;;;;;3.83;2.60;;;20.30;51.40;;;;;;5072917;27;21023;-49
2022/05/27 14:31:11;;;;;;;2.80;2.20;;;20.30;51.70;;;;;;5101312;27;20572;-48
2022/05/27 14:33:54;;;;;;;4.40;2.20;;;20.30;51.40;;;;;;5109975;27;20556;-49
2022/05/27 14:36:43;;;;;;;3.30;2.47;;;20.30;50.30;;;;;;5079821;27;20668;-49
2022/05/27 14:39:23;;;;;;;4.77;2.13;;;20.30;49.80;;;;;;5112368;27;20662;-48
2022/05/27 14:42:07;;;;;;;4.13;2.30;;;20.40;49.80;;;;;;5080789;27;20519;-51
2022/05/27 14:44:49;;;;;;;5.97;2.50;;;20.40;50.40;;;;;;5102922;27;20991;-52
2022/05/27 14:47:34;;;;;;;4.63;2.53;;;20.40;49.90;;;;;;5072626;28;20963;-49
2022/05/27 14:50:19;;;;;;;7.53;2.40;;;20.30;49.70;;;;;;5081364;27;20556;-50
2022/05/27 14:53:04;;;;;;;5.30;2.30;;;20.30;50.40;;;;;;5077901;27;20964;-50
2022/05/27 14:56:01;;;;;;;2.67;2.47;;;20.30;50.90;;;;;;5128546;27;20868;-49
2022/05/27 14:58:42;;;;;;;2.20;2.00;;;20.40;51.60;;;;;;5101107;27;21101;-51
2022/05/27 15:01:39;;;;;;;4.37;2.50;;;20.30;51.70;;;;;;5122063;27;20919;-47
2022/05/27 15:04:27;;;;;;;15.80;4.00;;;20.40;52.10;;;;;;5079347;27;21065;-49
2022/05/27 15:07:24;;;;;;;8.10;3.33;;;20.30;49.20;;;;;;5071476;27;20624;-49
2022/05/27 15:10:40;;;;;;;5.23;2.47;;;20.30;47.10;;;;;;5081264;27;20596;-48
2022/05/27 15:14:05;;;;;;;8.33;3.30;;;20.20;49.00;;;;;;5064896;27;20575;-50